sensor_id;sensor_type;location;lat;lon;timestamp;temperature;humidity
56869;DHT22;42754;0.000;0.000;2023-03-14T00:01:40;11.60;99.90
56869;DHT22;42754;0.000;0.000;2023-03-14T00:04:08;11.60;99.90
56869;DHT22;42754;0.000;0.000;2023-03-14T00:06:34;11.50;99.90
56869;DHT22;42754;0.000;0.000;2023-03-14T00:09:00;11.60;99.90
56869;DHT22;42754;0.000;0.000;2023-03-14T00:11:25;11.60;99.90
56869;DHT22;42754;0.000;0.000;2023-03-14T00:13:51;11.60;99.90
56869;DHT22;42754;0.000;0.000;2023-03-14T00:16:18;11.60;99.90
56869;DHT22;42754;0.000;0.000;2023-03-14T00:18:43;11.50;99.90
56869;DHT22;42754;0.000;0.000;2023-03-14T00:21:11;11.50;99.90
56869;DHT22;42754;0.000;0.000;2023-03-14T00:23:37;11.60;99.90
56869;DHT22;42754;0.000;0.000;2023-03-14T00:26:04;11.50;99.90
56869;DHT22;42754;0.000;0.000;2023-03-14T00:28:30;11.50;99.90
56869;DHT22;42754;0.000;0.000;2023-03-14T00:30:55;11.60;99.90
56869;DHT22;42754;0.000;0.000;2023-03-14T00:33:22;11.60;99.90
56869;DHT22;42754;0.000;0.000;2023-03-14T00:35:57;11.60;99.90
56869;DHT22;42754;0.000;0.000;2023-03-14T00:38:24;11.50;99.90
56869;DHT22;42754;0.000;0.000;2023-03-14T00:40:50;11.40;99.90
56869;DHT22;42754;0.000;0.000;2023-03-14T00:43:16;11.40;99.90
56869;DHT22;42754;0.000;0.000;2023-03-14T00:45:42;11.40;99.90
56869;DHT22;42754;0.000;0.000;2023-03-14T00:48:07;11.30;99.90
56869;DHT22;42754;0.000;0.000;2023-03-14T00:50:33;11.40;99.90
56869;DHT22;42754;0.000;0.000;2023-03-14T00:52:58;11.30;99.90
56869;DHT22;42754;0.000;0.000;2023-03-14T00:55:25;11.30;99.90
56869;DHT22;42754;0.000;0.000;2023-03-14T00:57:51;11.30;99.90
56869;DHT22;42754;0.000;0.000;2023-03-14T01:00:16;11.30;99.90
56869;DHT22;42754;0.000;0.000;2023-03-14T01:02:42;11.30;99.90
56869;DHT22;42754;0.000;0.000;2023-03-14T01:05:08;11.30;99.90
56869;DHT22;42754;0.000;0.000;2023-03-14T01:07:36;11.30;99.90
56869;DHT22;42754;0.000;0.000;2023-03-14T01:10:02;11.30;99.90
56869;DHT22;42754;0.000;0.000;2023-03-14T01:12:28;11.20;99.90
56869;DHT22;42754;0.000;0.000;2023-03-14T01:14:53;11.20;99.90
56869;DHT22;42754;0.000;0.000;2023-03-14T01:17:19;11.20;99.90
56869;DHT22;42754;0.000;0.000;2023-03-14T01:19:45;11.20;99.90
56869;DHT22;42754;0.000;0.000;2023-03-14T01:22:10;11.20;99.90
56869;DHT22;42754;0.000;0.000;2023-03-14T01:24:36;11.20;99.90
56869;DHT22;42754;0.000;0.000;2023-03-14T01:27:02;11.20;99.90
56869;DHT22;42754;0.000;0.000;2023-03-14T01:29:27;11.20;99.90
56869;DHT22;42754;0.000;0.000;2023-03-14T01:31:53;11.20;99.90
56869;DHT22;42754;0.000;0.000;2023-03-14T01:34:18;11.20;99.90
56869;DHT22;42754;0.000;0.000;2023-03-14T01:36:44;11.20;99.90
56869;DHT22;42754;0.000;0.000;2023-03-14T01:39:09;11.20;99.90
56869;DHT22;42754;0.000;0.000;2023-03-14T01:41:35;11.20;99.90
56869;DHT22;42754;0.000;0.000;2023-03-14T01:44:00;11.20;99.90
56869;DHT22;42754;0.000;0.000;2023-03-14T01:46:37;11.10;99.90
56869;DHT22;42754;0.000;0.000;2023-03-14T01:51:50;11.20;99.90
56869;DHT22;42754;0.000;0.000;2023-03-14T01:56:44;11.10;99.90
56869;DHT22;42754;0.000;0.000;2023-03-14T01:59:11;11.00;99.90
56869;DHT22;42754;0.000;0.000;2023-03-14T02:01:37;11.00;99.90
56869;DHT22;42754;0.000;0.000;2023-03-14T02:04:04;10.80;99.90
56869;DHT22;42754;0.000;0.000;2023-03-14T02:06:53;10.80;99.90
56869;DHT22;42754;0.000;0.000;2023-03-14T02:09:16;10.70;99.90
56869;DHT22;42754;0.000;0.000;2023-03-14T02:11:42;10.60;99.90
56869;DHT22;42754;0.000;0.000;2023-03-14T02:14:09;10.60;99.90
56869;DHT22;42754;0.000;0.000;2023-03-14T02:16:39;10.60;99.90
56869;DHT22;42754;0.000;0.000;2023-03-14T02:19:04;10.50;99.90
56869;DHT22;42754;0.000;0.000;2023-03-14T02:24:46;10.40;99.90
56869;DHT22;42754;0.000;0.000;2023-03-14T02:27:01;10.40;99.90
56869;DHT22;42754;0.000;0.000;2023-03-14T02:29:26;10.40;99.90
56869;DHT22;42754;0.000;0.000;2023-03-14T02:31:52;10.30;99.90
56869;DHT22;42754;0.000;0.000;2023-03-14T02:34:18;10.30;99.90
56869;DHT22;42754;0.000;0.000;2023-03-14T02:36:43;10.20;99.90
56869;DHT22;42754;0.000;0.000;2023-03-14T02:39:15;10.20;99.90
56869;DHT22;42754;0.000;0.000;2023-03-14T02:41:44;10.20;99.90
56869;DHT22;42754;0.000;0.000;2023-03-14T02:44:11;10.10;99.90
56869;DHT22;42754;0.000;0.000;2023-03-14T02:46:37;10.10;99.90
56869;DHT22;42754;0.000;0.000;2023-03-14T02:49:03;10.10;99.90
56869;DHT22;42754;0.000;0.000;2023-03-14T02:51:30;10.00;99.90
56869;DHT22;42754;0.000;0.000;2023-03-14T02:53:56;10.00;99.90
56869;DHT22;42754;0.000;0.000;2023-03-14T02:56:22;10.00;99.90
56869;DHT22;42754;0.000;0.000;2023-03-14T02:58:48;10.00;99.90
56869;DHT22;42754;0.000;0.000;2023-03-14T03:01:13;10.00;99.90
56869;DHT22;42754;0.000;0.000;2023-03-14T03:03:39;10.00;99.90
56869;DHT22;42754;0.000;0.000;2023-03-14T03:06:04;10.00;99.90
56869;DHT22;42754;0.000;0.000;2023-03-14T03:08:30;10.00;99.90
56869;DHT22;42754;0.000;0.000;2023-03-14T03:10:56;10.00;99.90
56869;DHT22;42754;0.000;0.000;2023-03-14T03:13:22;10.00;99.90
56869;DHT22;42754;0.000;0.000;2023-03-14T03:15:47;10.00;99.90
56869;DHT22;42754;0.000;0.000;2023-03-14T03:18:13;10.00;99.90
56869;DHT22;42754;0.000;0.000;2023-03-14T03:20:39;10.00;99.90
56869;DHT22;42754;0.000;0.000;2023-03-14T03:23:04;10.00;99.90
56869;DHT22;42754;0.000;0.000;2023-03-14T03:25:30;9.90;99.90
56869;DHT22;42754;0.000;0.000;2023-03-14T03:27:56;9.90;99.90
56869;DHT22;42754;0.000;0.000;2023-03-14T03:30:21;9.90;99.90
56869;DHT22;42754;0.000;0.000;2023-03-14T03:32:47;9.90;99.90
56869;DHT22;42754;0.000;0.000;2023-03-14T03:35:13;9.90;99.90
56869;DHT22;42754;0.000;0.000;2023-03-14T03:37:39;9.90;99.90
56869;DHT22;42754;0.000;0.000;2023-03-14T03:40:05;9.90;99.90
56869;DHT22;42754;0.000;0.000;2023-03-14T03:42:31;9.90;99.90
56869;DHT22;42754;0.000;0.000;2023-03-14T03:44:57;9.90;99.90
56869;DHT22;42754;0.000;0.000;2023-03-14T03:47:23;9.90;99.90
56869;DHT22;42754;0.000;0.000;2023-03-14T03:49:48;9.80;99.90
56869;DHT22;42754;0.000;0.000;2023-03-14T03:52:14;9.80;99.90
56869;DHT22;42754;0.000;0.000;2023-03-14T03:54:40;9.80;99.90
56869;DHT22;42754;0.000;0.000;2023-03-14T03:57:05;9.80;99.90
56869;DHT22;42754;0.000;0.000;2023-03-14T03:59:31;9.80;99.90
56869;DHT22;42754;0.000;0.000;2023-03-14T04:01:57;9.80;99.90
56869;DHT22;42754;0.000;0.000;2023-03-14T04:04:23;9.80;99.90
56869;DHT22;42754;0.000;0.000;2023-03-14T04:06:49;9.90;99.90
56869;DHT22;42754;0.000;0.000;2023-03-14T04:09:14;9.80;99.90
56869;DHT22;42754;0.000;0.000;2023-03-14T04:11:40;9.80;99.90
56869;DHT22;42754;0.000;0.000;2023-03-14T04:14:07;9.80;99.90
56869;DHT22;42754;0.000;0.000;2023-03-14T04:16:33;9.80;99.90
56869;DHT22;42754;0.000;0.000;2023-03-14T04:18:59;9.80;99.90
56869;DHT22;42754;0.000;0.000;2023-03-14T04:21:25;9.80;99.90
56869;DHT22;42754;0.000;0.000;2023-03-14T04:23:51;9.90;99.90
56869;DHT22;42754;0.000;0.000;2023-03-14T04:26:16;9.80;99.90
56869;DHT22;42754;0.000;0.000;2023-03-14T04:28:42;9.90;99.90
56869;DHT22;42754;0.000;0.000;2023-03-14T04:31:12;9.80;99.90
56869;DHT22;42754;0.000;0.000;2023-03-14T04:33:38;9.90;99.90
56869;DHT22;42754;0.000;0.000;2023-03-14T04:36:04;9.90;99.90
56869;DHT22;42754;0.000;0.000;2023-03-14T04:38:30;9.90;99.90
56869;DHT22;42754;0.000;0.000;2023-03-14T04:40:55;9.90;99.90
56869;DHT22;42754;0.000;0.000;2023-03-14T04:43:21;9.90;99.90
56869;DHT22;42754;0.000;0.000;2023-03-14T04:45:46;9.90;99.90
56869;DHT22;42754;0.000;0.000;2023-03-14T04:48:12;9.90;99.90
56869;DHT22;42754;0.000;0.000;2023-03-14T04:50:38;9.90;99.90
56869;DHT22;42754;0.000;0.000;2023-03-14T04:53:04;9.90;99.90
56869;DHT22;42754;0.000;0.000;2023-03-14T04:55:30;9.90;99.90
56869;DHT22;42754;0.000;0.000;2023-03-14T04:57:57;9.90;99.90
56869;DHT22;42754;0.000;0.000;2023-03-14T05:00:22;9.90;99.90
56869;DHT22;42754;0.000;0.000;2023-03-14T05:02:48;9.90;99.90
56869;DHT22;42754;0.000;0.000;2023-03-14T05:05:14;9.90;99.90
56869;DHT22;42754;0.000;0.000;2023-03-14T05:07:39;9.90;99.90
56869;DHT22;42754;0.000;0.000;2023-03-14T05:10:05;9.90;99.90
56869;DHT22;42754;0.000;0.000;2023-03-14T05:12:30;9.90;99.90
56869;DHT22;42754;0.000;0.000;2023-03-14T05:14:56;9.90;99.90
56869;DHT22;42754;0.000;0.000;2023-03-14T05:17:21;9.90;99.90
56869;DHT22;42754;0.000;0.000;2023-03-14T05:19:47;9.90;99.90
56869;DHT22;42754;0.000;0.000;2023-03-14T05:22:13;9.90;99.90
56869;DHT22;42754;0.000;0.000;2023-03-14T05:24:38;9.80;99.90
56869;DHT22;42754;0.000;0.000;2023-03-14T05:27:04;9.80;99.90
56869;DHT22;42754;0.000;0.000;2023-03-14T05:29:30;9.80;99.90
56869;DHT22;42754;0.000;0.000;2023-03-14T05:31:55;9.80;99.90
56869;DHT22;42754;0.000;0.000;2023-03-14T05:34:21;9.80;99.90
56869;DHT22;42754;0.000;0.000;2023-03-14T05:36:46;9.70;99.90
56869;DHT22;42754;0.000;0.000;2023-03-14T05:39:13;9.80;99.90
56869;DHT22;42754;0.000;0.000;2023-03-14T05:41:38;9.80;99.90
56869;DHT22;42754;0.000;0.000;2023-03-14T05:44:04;9.80;99.90
56869;DHT22;42754;0.000;0.000;2023-03-14T05:46:30;9.80;99.90
56869;DHT22;42754;0.000;0.000;2023-03-14T05:48:56;9.80;99.90
56869;DHT22;42754;0.000;0.000;2023-03-14T05:51:22;9.80;99.90
56869;DHT22;42754;0.000;0.000;2023-03-14T05:53:47;9.80;99.90
56869;DHT22;42754;0.000;0.000;2023-03-14T05:56:13;9.70;99.90
56869;DHT22;42754;0.000;0.000;2023-03-14T05:58:39;9.70;99.90
56869;DHT22;42754;0.000;0.000;2023-03-14T06:01:05;9.70;99.90
56869;DHT22;42754;0.000;0.000;2023-03-14T06:03:31;9.80;99.90
56869;DHT22;42754;0.000;0.000;2023-03-14T06:05:57;9.80;99.90
56869;DHT22;42754;0.000;0.000;2023-03-14T06:08:22;9.80;99.90
56869;DHT22;42754;0.000;0.000;2023-03-14T06:10:48;9.80;99.90
56869;DHT22;42754;0.000;0.000;2023-03-14T06:13:13;9.80;99.90
56869;DHT22;42754;0.000;0.000;2023-03-14T06:15:40;9.70;99.90
56869;DHT22;42754;0.000;0.000;2023-03-14T06:18:06;9.70;99.90
56869;DHT22;42754;0.000;0.000;2023-03-14T06:20:32;9.70;99.90
56869;DHT22;42754;0.000;0.000;2023-03-14T06:22:58;9.70;99.90
56869;DHT22;42754;0.000;0.000;2023-03-14T06:25:24;9.70;99.90
56869;DHT22;42754;0.000;0.000;2023-03-14T06:27:49;9.70;99.90
56869;DHT22;42754;0.000;0.000;2023-03-14T06:30:15;9.70;99.90
56869;DHT22;42754;0.000;0.000;2023-03-14T06:32:41;9.70;99.90
56869;DHT22;42754;0.000;0.000;2023-03-14T06:35:07;9.70;99.90
56869;DHT22;42754;0.000;0.000;2023-03-14T06:37:33;9.70;99.90
56869;DHT22;42754;0.000;0.000;2023-03-14T06:39:59;9.70;99.90
56869;DHT22;42754;0.000;0.000;2023-03-14T06:42:24;9.70;99.90
56869;DHT22;42754;0.000;0.000;2023-03-14T06:44:50;9.70;99.90
56869;DHT22;42754;0.000;0.000;2023-03-14T06:47:15;9.70;99.90
56869;DHT22;42754;0.000;0.000;2023-03-14T06:49:41;9.70;99.90
56869;DHT22;42754;0.000;0.000;2023-03-14T06:52:06;9.70;99.90
56869;DHT22;42754;0.000;0.000;2023-03-14T06:54:32;9.80;99.90
56869;DHT22;42754;0.000;0.000;2023-03-14T06:56:58;9.70;99.90
56869;DHT22;42754;0.000;0.000;2023-03-14T06:59:24;9.80;99.90
56869;DHT22;42754;0.000;0.000;2023-03-14T07:01:50;9.80;99.90
56869;DHT22;42754;0.000;0.000;2023-03-14T07:04:16;9.80;99.90
56869;DHT22;42754;0.000;0.000;2023-03-14T07:06:41;9.80;99.90
56869;DHT22;42754;0.000;0.000;2023-03-14T07:09:10;9.80;99.90
56869;DHT22;42754;0.000;0.000;2023-03-14T07:11:36;9.90;99.90
56869;DHT22;42754;0.000;0.000;2023-03-14T07:14:01;9.90;99.90
56869;DHT22;42754;0.000;0.000;2023-03-14T07:16:27;9.90;99.90
56869;DHT22;42754;0.000;0.000;2023-03-14T07:18:56;10.00;99.90
56869;DHT22;42754;0.000;0.000;2023-03-14T07:21:22;10.00;99.90
56869;DHT22;42754;0.000;0.000;2023-03-14T07:23:47;9.90;99.90
56869;DHT22;42754;0.000;0.000;2023-03-14T07:26:13;10.00;99.90
56869;DHT22;42754;0.000;0.000;2023-03-14T07:28:38;10.00;99.90
56869;DHT22;42754;0.000;0.000;2023-03-14T07:31:04;10.00;99.90
56869;DHT22;42754;0.000;0.000;2023-03-14T07:33:30;10.00;99.90
56869;DHT22;42754;0.000;0.000;2023-03-14T07:35:55;10.00;99.90
56869;DHT22;42754;0.000;0.000;2023-03-14T07:38:21;9.90;99.90
56869;DHT22;42754;0.000;0.000;2023-03-14T07:40:47;9.90;99.90
56869;DHT22;42754;0.000;0.000;2023-03-14T07:43:12;9.90;99.90
56869;DHT22;42754;0.000;0.000;2023-03-14T07:45:38;9.80;99.90
56869;DHT22;42754;0.000;0.000;2023-03-14T07:48:03;9.70;99.90
56869;DHT22;42754;0.000;0.000;2023-03-14T07:50:29;9.70;99.90
56869;DHT22;42754;0.000;0.000;2023-03-14T07:52:54;9.70;99.90
56869;DHT22;42754;0.000;0.000;2023-03-14T07:55:20;9.50;99.90
56869;DHT22;42754;0.000;0.000;2023-03-14T07:57:46;9.30;99.90
56869;DHT22;42754;0.000;0.000;2023-03-14T08:00:11;9.30;99.90
56869;DHT22;42754;0.000;0.000;2023-03-14T08:02:39;9.20;99.90
56869;DHT22;42754;0.000;0.000;2023-03-14T08:05:05;9.10;99.90
56869;DHT22;42754;0.000;0.000;2023-03-14T08:07:31;9.00;99.90
56869;DHT22;42754;0.000;0.000;2023-03-14T08:09:57;8.90;99.90
56869;DHT22;42754;0.000;0.000;2023-03-14T08:12:23;8.80;99.90
56869;DHT22;42754;0.000;0.000;2023-03-14T08:14:48;8.80;99.90
56869;DHT22;42754;0.000;0.000;2023-03-14T08:17:14;8.60;99.90
56869;DHT22;42754;0.000;0.000;2023-03-14T08:19:40;8.60;99.90
56869;DHT22;42754;0.000;0.000;2023-03-14T08:22:06;8.50;99.90
56869;DHT22;42754;0.000;0.000;2023-03-14T08:24:31;8.50;99.90
56869;DHT22;42754;0.000;0.000;2023-03-14T08:26:57;8.50;99.90
56869;DHT22;42754;0.000;0.000;2023-03-14T08:29:24;8.50;99.90
56869;DHT22;42754;0.000;0.000;2023-03-14T08:31:49;8.50;99.90
56869;DHT22;42754;0.000;0.000;2023-03-14T08:34:15;8.40;99.90
56869;DHT22;42754;0.000;0.000;2023-03-14T08:36:41;8.40;99.90
56869;DHT22;42754;0.000;0.000;2023-03-14T08:39:06;8.30;99.90
56869;DHT22;42754;0.000;0.000;2023-03-14T08:41:33;8.20;99.90
56869;DHT22;42754;0.000;0.000;2023-03-14T08:44:00;8.10;99.90
56869;DHT22;42754;0.000;0.000;2023-03-14T08:46:26;8.30;99.90
56869;DHT22;42754;0.000;0.000;2023-03-14T08:48:51;8.30;99.90
56869;DHT22;42754;0.000;0.000;2023-03-14T08:51:17;8.20;99.90
56869;DHT22;42754;0.000;0.000;2023-03-14T08:53:43;8.20;99.90
56869;DHT22;42754;0.000;0.000;2023-03-14T08:56:09;8.00;99.90
56869;DHT22;42754;0.000;0.000;2023-03-14T08:58:36;7.90;99.90
56869;DHT22;42754;0.000;0.000;2023-03-14T09:01:04;7.80;99.90
56869;DHT22;42754;0.000;0.000;2023-03-14T09:03:30;7.70;99.90
56869;DHT22;42754;0.000;0.000;2023-03-14T09:05:55;7.50;99.90
56869;DHT22;42754;0.000;0.000;2023-03-14T09:08:21;7.70;99.90
56869;DHT22;42754;0.000;0.000;2023-03-14T09:10:47;7.70;99.90
56869;DHT22;42754;0.000;0.000;2023-03-14T09:13:12;7.80;99.90
56869;DHT22;42754;0.000;0.000;2023-03-14T09:15:38;7.80;99.90
56869;DHT22;42754;0.000;0.000;2023-03-14T09:18:04;7.70;99.90
56869;DHT22;42754;0.000;0.000;2023-03-14T09:20:29;7.80;99.90
56869;DHT22;42754;0.000;0.000;2023-03-14T09:22:55;7.80;99.90
56869;DHT22;42754;0.000;0.000;2023-03-14T09:25:20;7.60;99.90
56869;DHT22;42754;0.000;0.000;2023-03-14T09:27:46;7.50;99.90
56869;DHT22;42754;0.000;0.000;2023-03-14T09:30:12;7.30;99.90
56869;DHT22;42754;0.000;0.000;2023-03-14T09:32:37;7.20;99.90
56869;DHT22;42754;0.000;0.000;2023-03-14T09:35:03;7.20;99.90
56869;DHT22;42754;0.000;0.000;2023-03-14T09:37:29;7.20;99.90
56869;DHT22;42754;0.000;0.000;2023-03-14T09:39:54;7.50;99.90
56869;DHT22;42754;0.000;0.000;2023-03-14T09:42:21;7.90;99.90
56869;DHT22;42754;0.000;0.000;2023-03-14T09:44:53;8.00;99.90
56869;DHT22;42754;0.000;0.000;2023-03-14T09:47:19;8.20;99.90
56869;DHT22;42754;0.000;0.000;2023-03-14T09:49:45;8.60;99.90
56869;DHT22;42754;0.000;0.000;2023-03-14T09:52:12;8.70;99.90
56869;DHT22;42754;0.000;0.000;2023-03-14T09:54:50;8.90;99.90
56869;DHT22;42754;0.000;0.000;2023-03-14T09:57:17;9.00;99.90
56869;DHT22;42754;0.000;0.000;2023-03-14T09:59:47;9.00;99.90
56869;DHT22;42754;0.000;0.000;2023-03-14T10:04:39;8.40;99.90
56869;DHT22;42754;0.000;0.000;2023-03-14T10:07:13;8.30;99.90
56869;DHT22;42754;0.000;0.000;2023-03-14T10:09:40;8.20;99.90
56869;DHT22;42754;0.000;0.000;2023-03-14T10:12:07;8.00;99.90
56869;DHT22;42754;0.000;0.000;2023-03-14T10:14:34;8.20;99.90
56869;DHT22;42754;0.000;0.000;2023-03-14T10:17:10;8.10;99.90
56869;DHT22;42754;0.000;0.000;2023-03-14T10:19:36;8.20;99.90
56869;DHT22;42754;0.000;0.000;2023-03-14T10:22:03;7.90;99.90
56869;DHT22;42754;0.000;0.000;2023-03-14T10:24:33;8.10;99.90
56869;DHT22;42754;0.000;0.000;2023-03-14T10:27:00;7.90;99.90
56869;DHT22;42754;0.000;0.000;2023-03-14T10:29:28;7.90;99.90
56869;DHT22;42754;0.000;0.000;2023-03-14T10:31:54;7.90;99.90
56869;DHT22;42754;0.000;0.000;2023-03-14T10:34:22;7.60;99.90
56869;DHT22;42754;0.000;0.000;2023-03-14T10:36:52;7.70;99.90
56869;DHT22;42754;0.000;0.000;2023-03-14T10:41:48;7.90;99.90
56869;DHT22;42754;0.000;0.000;2023-03-14T10:44:14;8.30;99.90
56869;DHT22;42754;0.000;0.000;2023-03-14T10:46:41;8.50;99.90
56869;DHT22;42754;0.000;0.000;2023-03-14T10:49:07;8.70;99.90
56869;DHT22;42754;0.000;0.000;2023-03-14T10:51:32;8.50;99.90
56869;DHT22;42754;0.000;0.000;2023-03-14T10:54:00;8.20;99.90
56869;DHT22;42754;0.000;0.000;2023-03-14T10:56:26;7.90;99.90
56869;DHT22;42754;0.000;0.000;2023-03-14T10:58:56;7.60;99.90
56869;DHT22;42754;0.000;0.000;2023-03-14T11:04:02;7.50;99.90
56869;DHT22;42754;0.000;0.000;2023-03-14T11:11:29;8.60;99.90
56869;DHT22;42754;0.000;0.000;2023-03-14T11:14:07;8.70;99.90
56869;DHT22;42754;0.000;0.000;2023-03-14T11:16:38;8.40;99.90
56869;DHT22;42754;0.000;0.000;2023-03-14T11:26:51;9.10;99.90
56869;DHT22;42754;0.000;0.000;2023-03-14T11:29:21;9.70;99.90
56869;DHT22;42754;0.000;0.000;2023-03-14T11:31:48;9.80;99.90
56869;DHT22;42754;0.000;0.000;2023-03-14T11:34:20;9.50;99.90
56869;DHT22;42754;0.000;0.000;2023-03-14T11:36:52;8.90;99.90
56869;DHT22;42754;0.000;0.000;2023-03-14T11:39:18;9.10;99.90
56869;DHT22;42754;0.000;0.000;2023-03-14T11:42:02;9.10;99.90
56869;DHT22;42754;0.000;0.000;2023-03-14T11:44:37;9.50;99.90
56869;DHT22;42754;0.000;0.000;2023-03-14T11:47:24;9.50;99.90
56869;DHT22;42754;0.000;0.000;2023-03-14T11:49:50;9.10;99.90
56869;DHT22;42754;0.000;0.000;2023-03-14T11:54:43;8.50;99.90
56869;DHT22;42754;0.000;0.000;2023-03-14T11:57:16;8.50;99.90
56869;DHT22;42754;0.000;0.000;2023-03-14T12:02:21;8.50;99.90
56869;DHT22;42754;0.000;0.000;2023-03-14T12:05:16;9.10;99.90
56869;DHT22;42754;0.000;0.000;2023-03-14T12:08:21;9.70;99.90
56869;DHT22;42754;0.000;0.000;2023-03-14T12:10:38;10.10;99.90
56869;DHT22;42754;0.000;0.000;2023-03-14T12:13:07;10.10;99.90
56869;DHT22;42754;0.000;0.000;2023-03-14T12:15:32;9.70;99.90
56869;DHT22;42754;0.000;0.000;2023-03-14T12:18:02;9.50;99.90
56869;DHT22;42754;0.000;0.000;2023-03-14T12:20:28;9.40;99.90
56869;DHT22;42754;0.000;0.000;2023-03-14T12:22:55;9.70;99.90
56869;DHT22;42754;0.000;0.000;2023-03-14T12:25:32;9.80;99.90
56869;DHT22;42754;0.000;0.000;2023-03-14T12:30:30;10.40;99.90
56869;DHT22;42754;0.000;0.000;2023-03-14T12:35:37;10.30;99.90
56869;DHT22;42754;0.000;0.000;2023-03-14T12:38:17;10.10;99.90
56869;DHT22;42754;0.000;0.000;2023-03-14T12:40:52;9.50;99.90
56869;DHT22;42754;0.000;0.000;2023-03-14T12:43:30;9.70;99.90
56869;DHT22;42754;0.000;0.000;2023-03-14T12:46:06;9.60;99.90
56869;DHT22;42754;0.000;0.000;2023-03-14T12:48:32;9.30;99.60
56869;DHT22;42754;0.000;0.000;2023-03-14T12:51:03;9.30;99.20
56869;DHT22;42754;0.000;0.000;2023-03-14T12:56:11;9.80;98.60
56869;DHT22;42754;0.000;0.000;2023-03-14T12:58:44;9.80;98.50
56869;DHT22;42754;0.000;0.000;2023-03-14T13:01:19;10.20;99.90
56869;DHT22;42754;0.000;0.000;2023-03-14T13:03:45;10.20;99.00
56869;DHT22;42754;0.000;0.000;2023-03-14T13:06:11;10.50;98.80
56869;DHT22;42754;0.000;0.000;2023-03-14T13:08:41;10.40;99.10
56869;DHT22;42754;0.000;0.000;2023-03-14T13:11:19;10.10;97.90
56869;DHT22;42754;0.000;0.000;2023-03-14T13:13:46;9.80;96.90
56869;DHT22;42754;0.000;0.000;2023-03-14T13:16:14;9.80;98.00
56869;DHT22;42754;0.000;0.000;2023-03-14T13:18:41;10.00;97.50
56869;DHT22;42754;0.000;0.000;2023-03-14T13:21:15;9.90;96.00
56869;DHT22;42754;0.000;0.000;2023-03-14T13:23:53;9.80;95.20
56869;DHT22;42754;0.000;0.000;2023-03-14T13:26:19;9.80;95.30
56869;DHT22;42754;0.000;0.000;2023-03-14T13:28:44;9.90;94.70
56869;DHT22;42754;0.000;0.000;2023-03-14T13:31:16;10.30;95.20
56869;DHT22;42754;0.000;0.000;2023-03-14T13:33:44;10.40;94.30
56869;DHT22;42754;0.000;0.000;2023-03-14T13:36:10;10.10;94.10
56869;DHT22;42754;0.000;0.000;2023-03-14T13:38:35;9.90;91.60
56869;DHT22;42754;0.000;0.000;2023-03-14T13:41:04;10.10;92.60
56869;DHT22;42754;0.000;0.000;2023-03-14T13:43:35;10.30;93.60
56869;DHT22;42754;0.000;0.000;2023-03-14T13:46:03;10.30;92.50
56869;DHT22;42754;0.000;0.000;2023-03-14T13:48:29;10.00;92.60
56869;DHT22;42754;0.000;0.000;2023-03-14T13:53:21;10.10;92.30
56869;DHT22;42754;0.000;0.000;2023-03-14T13:55:48;10.50;92.50
56869;DHT22;42754;0.000;0.000;2023-03-14T13:58:22;10.10;91.50
56869;DHT22;42754;0.000;0.000;2023-03-14T14:03:32;10.20;91.90
56869;DHT22;42754;0.000;0.000;2023-03-14T14:05:59;10.10;92.10
56869;DHT22;42754;0.000;0.000;2023-03-14T14:08:31;10.10;92.20
56869;DHT22;42754;0.000;0.000;2023-03-14T14:11:00;9.40;91.30
56869;DHT22;42754;0.000;0.000;2023-03-14T14:13:27;9.10;92.60
56869;DHT22;42754;0.000;0.000;2023-03-14T14:15:54;9.10;92.20
56869;DHT22;42754;0.000;0.000;2023-03-14T14:18:22;9.60;92.20
56869;DHT22;42754;0.000;0.000;2023-03-14T14:20:49;9.70;91.40
56869;DHT22;42754;0.000;0.000;2023-03-14T14:23:18;9.80;91.40
56869;DHT22;42754;0.000;0.000;2023-03-14T14:25:50;10.10;91.70
56869;DHT22;42754;0.000;0.000;2023-03-14T14:31:17;10.60;91.70
56869;DHT22;42754;0.000;0.000;2023-03-14T14:33:46;10.40;91.50
56869;DHT22;42754;0.000;0.000;2023-03-14T14:36:16;10.20;92.20
56869;DHT22;42754;0.000;0.000;2023-03-14T14:38:48;10.40;91.60
56869;DHT22;42754;0.000;0.000;2023-03-14T14:41:14;10.30;91.30
56869;DHT22;42754;0.000;0.000;2023-03-14T14:43:40;10.10;91.80
56869;DHT22;42754;0.000;0.000;2023-03-14T14:46:06;10.20;91.60
56869;DHT22;42754;0.000;0.000;2023-03-14T14:48:35;9.90;90.90
56869;DHT22;42754;0.000;0.000;2023-03-14T14:51:02;9.70;91.00
56869;DHT22;42754;0.000;0.000;2023-03-14T14:56:04;9.10;91.50
56869;DHT22;42754;0.000;0.000;2023-03-14T14:58:36;9.00;92.60
56869;DHT22;42754;0.000;0.000;2023-03-14T15:01:18;8.90;92.40
56869;DHT22;42754;0.000;0.000;2023-03-14T15:03:45;8.90;93.00
56869;DHT22;42754;0.000;0.000;2023-03-14T15:06:13;8.80;92.70
56869;DHT22;42754;0.000;0.000;2023-03-14T15:08:39;8.90;93.10
56869;DHT22;42754;0.000;0.000;2023-03-14T15:11:05;8.80;90.90
56869;DHT22;42754;0.000;0.000;2023-03-14T15:13:30;8.50;88.40
56869;DHT22;42754;0.000;0.000;2023-03-14T15:15:57;8.50;90.50
56869;DHT22;42754;0.000;0.000;2023-03-14T15:18:23;8.40;89.10
56869;DHT22;42754;0.000;0.000;2023-03-14T15:20:51;8.30;88.20
56869;DHT22;42754;0.000;0.000;2023-03-14T15:23:18;8.40;90.50
56869;DHT22;42754;0.000;0.000;2023-03-14T15:25:43;8.30;90.10
56869;DHT22;42754;0.000;0.000;2023-03-14T15:28:15;8.20;89.90
56869;DHT22;42754;0.000;0.000;2023-03-14T15:30:41;8.20;90.40
56869;DHT22;42754;0.000;0.000;2023-03-14T15:33:07;8.20;91.00
56869;DHT22;42754;0.000;0.000;2023-03-14T15:35:37;8.10;90.70
56869;DHT22;42754;0.000;0.000;2023-03-14T15:38:02;8.10;90.40
56869;DHT22;42754;0.000;0.000;2023-03-14T15:40:31;8.00;90.60
56869;DHT22;42754;0.000;0.000;2023-03-14T15:42:57;8.10;91.50
56869;DHT22;42754;0.000;0.000;2023-03-14T15:45:22;8.00;90.20
56869;DHT22;42754;0.000;0.000;2023-03-14T15:47:48;8.00;91.50
56869;DHT22;42754;0.000;0.000;2023-03-14T15:50:14;7.80;91.80
56869;DHT22;42754;0.000;0.000;2023-03-14T15:52:39;7.80;92.50
56869;DHT22;42754;0.000;0.000;2023-03-14T15:55:06;7.90;92.70
56869;DHT22;42754;0.000;0.000;2023-03-14T15:57:31;7.80;92.80
56869;DHT22;42754;0.000;0.000;2023-03-14T15:59:58;7.80;93.30
56869;DHT22;42754;0.000;0.000;2023-03-14T16:02:25;7.70;93.30
56869;DHT22;42754;0.000;0.000;2023-03-14T16:04:52;7.70;94.20
56869;DHT22;42754;0.000;0.000;2023-03-14T16:07:17;7.80;93.60
56869;DHT22;42754;0.000;0.000;2023-03-14T16:09:45;7.90;94.60
56869;DHT22;42754;0.000;0.000;2023-03-14T16:12:10;7.90;94.10
56869;DHT22;42754;0.000;0.000;2023-03-14T16:14:36;7.70;94.00
56869;DHT22;42754;0.000;0.000;2023-03-14T16:17:01;7.60;93.70
56869;DHT22;42754;0.000;0.000;2023-03-14T16:19:27;7.60;93.50
56869;DHT22;42754;0.000;0.000;2023-03-14T16:21:53;7.40;92.90
56869;DHT22;42754;0.000;0.000;2023-03-14T16:24:19;7.30;93.40
56869;DHT22;42754;0.000;0.000;2023-03-14T16:26:44;7.30;93.80
56869;DHT22;42754;0.000;0.000;2023-03-14T16:29:11;7.30;94.80
56869;DHT22;42754;0.000;0.000;2023-03-14T16:31:37;7.30;94.60
56869;DHT22;42754;0.000;0.000;2023-03-14T16:34:10;7.20;95.00
56869;DHT22;42754;0.000;0.000;2023-03-14T16:36:35;7.30;95.70
56869;DHT22;42754;0.000;0.000;2023-03-14T16:39:01;7.30;95.80
56869;DHT22;42754;0.000;0.000;2023-03-14T16:41:26;7.20;96.60
56869;DHT22;42754;0.000;0.000;2023-03-14T16:43:58;7.20;97.60
56869;DHT22;42754;0.000;0.000;2023-03-14T16:46:23;7.20;97.00
56869;DHT22;42754;0.000;0.000;2023-03-14T16:48:54;7.10;97.50